createdAt,value
2023-04-24T00:02:14.804Z,61.36
2023-04-24T00:04:45.877Z,60.39
2023-04-24T00:07:14.131Z,60.09
2023-04-24T00:09:41.900Z,60.75
2023-04-24T00:12:09.960Z,59.45
2023-04-24T00:14:37.390Z,59.47
2023-04-24T00:17:04.989Z,59.27
2023-04-24T00:19:32.565Z,59.04
2023-04-24T00:21:59.895Z,58.98
2023-04-24T00:24:27.303Z,59.37
2023-04-24T00:26:54.675Z,59.51
2023-04-24T00:29:22.186Z,60.17
2023-04-24T00:31:49.746Z,60.77
2023-04-24T00:34:17.446Z,61.52
2023-04-24T00:36:44.884Z,62.02
2023-04-24T00:39:12.259Z,62.74
2023-04-24T00:41:39.641Z,62.67
2023-04-24T00:44:07.060Z,62.76
2023-04-24T00:46:34.558Z,62.94
2023-04-24T00:49:01.950Z,63.21
2023-04-24T00:51:29.513Z,63.47
2023-04-24T00:53:56.957Z,63.77
2023-04-24T00:56:24.690Z,64.11
2023-04-24T00:58:52.480Z,64.70
2023-04-24T01:01:24.707Z,65.01
2023-04-24T01:03:52.831Z,65.21
2023-04-24T01:06:21.496Z,65.88
2023-04-24T01:08:49.774Z,66.66
2023-04-24T01:11:17.373Z,67.26
2023-04-24T01:13:47.031Z,67.68
2023-04-24T01:16:16.008Z,68.27
2023-04-24T01:18:43.560Z,68.52
2023-04-24T01:21:14.909Z,68.21
2023-04-24T01:23:42.332Z,68.13
2023-04-24T01:26:09.816Z,68.02
2023-04-24T01:28:37.831Z,68.32
2023-04-24T01:31:06.990Z,68.75
2023-04-24T01:33:34.841Z,70.53
2023-04-24T01:36:02.678Z,70.29
2023-04-24T01:38:30.292Z,71.05
2023-04-24T01:40:57.647Z,71.63
2023-04-24T01:43:26.239Z,71.97
2023-04-24T01:45:53.624Z,75.24
2023-04-24T01:48:21.350Z,74.38
2023-04-24T01:50:48.757Z,76.03
2023-04-24T01:53:16.220Z,76.36
2023-04-24T01:55:43.786Z,78.62
2023-04-24T01:58:13.899Z,79.71
2023-04-24T02:00:42.176Z,77.94
2023-04-24T02:03:09.712Z,78.78
2023-04-24T02:05:37.282Z,80.93
2023-04-24T02:08:04.799Z,84.81
2023-04-24T02:10:32.201Z,87.68
2023-04-24T02:13:00.799Z,91.46
2023-04-24T02:15:28.230Z,93.12
2023-04-24T02:17:55.774Z,97.04
2023-04-24T02:20:23.349Z,97.23
2023-04-24T02:22:50.752Z,96.63
2023-04-24T02:25:19.512Z,97.76
2023-04-24T02:27:47.453Z,95.89
2023-04-24T02:30:15.074Z,98.44
2023-04-24T02:32:42.439Z,100.00
2023-04-24T02:35:12.205Z,96.09
2023-04-24T02:37:39.830Z,94.13
2023-04-24T02:40:08.459Z,93.86
2023-04-24T02:42:35.991Z,99.93
2023-04-24T02:45:03.569Z,100.00
2023-04-24T02:47:31.839Z,100.00
2023-04-24T02:50:01.204Z,99.59
2023-04-24T02:52:29.248Z,100.00
2023-04-24T02:54:56.746Z,100.00
2023-04-24T02:57:24.236Z,100.00
2023-04-24T02:59:51.740Z,100.00
2023-04-24T03:02:19.337Z,100.00
2023-04-24T03:04:48.882Z,100.00
2023-04-24T03:07:16.400Z,100.00
2023-04-24T03:09:44.644Z,100.00
2023-04-24T03:12:12.159Z,99.84
2023-04-24T03:14:40.537Z,99.31
2023-04-24T03:17:07.974Z,100.00
2023-04-24T03:19:35.323Z,100.00
2023-04-24T03:22:10.361Z,97.45
2023-04-24T03:24:38.922Z,100.00
2023-04-24T03:27:06.623Z,99.14
2023-04-24T03:30:12.559Z,100.00
2023-04-24T03:32:51.319Z,100.00
2023-04-24T03:35:23.874Z,100.00
2023-04-24T03:37:52.310Z,100.00
2023-04-24T03:40:38.306Z,100.00
2023-04-24T03:43:15.229Z,100.00
2023-04-24T03:45:43.580Z,100.00
2023-04-24T03:48:11.935Z,100.00
2023-04-24T03:50:39.594Z,100.00
2023-04-24T03:53:10.376Z,100.00
2023-04-24T03:55:41.232Z,100.00
2023-04-24T03:58:09.685Z,100.00
2023-04-24T04:00:38.536Z,100.00
2023-04-24T04:03:38.455Z,100.00
2023-04-24T04:06:06.817Z,100.00
2023-04-24T04:08:34.321Z,100.00
2023-04-24T04:11:03.956Z,100.00
2023-04-24T04:13:32.855Z,100.00
2023-04-24T04:16:00.806Z,100.00
2023-04-24T04:18:28.479Z,100.00
2023-04-24T04:20:56.066Z,100.00
2023-04-24T04:23:24.335Z,100.00
2023-04-24T04:26:06.815Z,100.00
2023-04-24T04:28:51.106Z,100.00
2023-04-24T04:31:18.610Z,100.00
2023-04-24T04:33:46.305Z,100.00
2023-04-24T04:36:13.807Z,100.00
2023-04-24T04:38:46.334Z,100.00
2023-04-24T04:41:24.757Z,100.00
2023-04-24T04:43:53.836Z,100.00
2023-04-24T04:46:22.621Z,100.00
2023-04-24T04:49:19.799Z,100.00
2023-04-24T04:51:48.088Z,100.00
2023-04-24T04:54:16.033Z,100.00
2023-04-24T04:56:43.518Z,100.00
2023-04-24T04:59:12.078Z,100.00
2023-04-24T05:01:41.285Z,100.00
2023-04-24T05:04:09.806Z,100.00
2023-04-24T05:06:38.687Z,100.00
2023-04-24T05:09:08.543Z,100.00
2023-04-24T05:11:45.843Z,100.00
2023-04-24T05:14:16.227Z,100.00
2023-04-24T05:16:44.386Z,100.00
2023-04-24T05:19:15.701Z,100.00
2023-04-24T05:21:43.243Z,100.00
2023-04-24T05:24:11.875Z,100.00
2023-04-24T05:26:59.757Z,100.00
2023-04-24T05:29:34.268Z,100.00
2023-04-24T05:32:02.067Z,100.00
2023-04-24T05:34:31.574Z,100.00
2023-04-24T05:36:59.318Z,100.00
2023-04-24T05:39:27.186Z,100.00
2023-04-24T05:41:59.043Z,100.00
2023-04-24T05:44:26.838Z,100.00
2023-04-24T05:46:56.430Z,100.00
2023-04-24T05:49:24.384Z,100.00
2023-04-24T05:51:51.939Z,100.00
2023-04-24T05:54:19.440Z,100.00
2023-04-24T05:56:47.530Z,100.00
2023-04-24T05:59:22.265Z,100.00
2023-04-24T06:01:50.027Z,100.00
2023-04-24T06:04:20.685Z,100.00
2023-04-24T06:06:51.789Z,100.00
2023-04-24T06:09:19.655Z,100.00
2023-04-24T06:11:47.068Z,100.00
2023-04-24T06:14:15.753Z,100.00
2023-04-24T06:17:17.327Z,100.00
2023-04-24T06:19:46.634Z,100.00
2023-04-24T06:22:14.431Z,100.00
2023-04-24T06:24:42.535Z,100.00
2023-04-24T06:27:10.131Z,100.00
2023-04-24T06:29:37.685Z,100.00
2023-04-24T06:32:05.181Z,100.00
2023-04-24T06:34:35.093Z,100.00
2023-04-24T06:37:03.126Z,100.00
2023-04-24T06:39:30.627Z,100.00
2023-04-24T06:41:57.997Z,100.00
2023-04-24T06:44:25.424Z,100.00
2023-04-24T06:46:53.053Z,100.00
2023-04-24T06:49:21.147Z,100.00
2023-04-24T06:51:48.517Z,100.00
2023-04-24T06:54:15.873Z,100.00
2023-04-24T06:56:43.298Z,100.00
2023-04-24T06:59:10.705Z,100.00
2023-04-24T07:01:38.134Z,100.00
2023-04-24T07:04:05.818Z,100.00
2023-04-24T07:06:33.580Z,100.00
2023-04-24T07:09:01.406Z,99.21
2023-04-24T07:11:30.505Z,97.22
2023-04-24T07:13:58.004Z,93.47
2023-04-24T07:16:25.842Z,90.72
2023-04-24T07:18:53.449Z,88.42
2023-04-24T07:21:21.062Z,88.10
2023-04-24T07:23:48.450Z,85.46
2023-04-24T07:26:16.017Z,84.75
2023-04-24T07:28:43.413Z,82.23
2023-04-24T07:31:12.934Z,81.46
2023-04-24T07:33:43.762Z,80.33
2023-04-24T07:36:16.422Z,81.57
2023-04-24T07:38:44.162Z,79.91
2023-04-24T07:41:11.513Z,80.64
2023-04-24T07:43:38.893Z,76.79
2023-04-24T07:46:08.805Z,76.28
2023-04-24T07:48:37.421Z,74.39
2023-04-24T07:51:04.882Z,72.70
2023-04-24T07:53:32.308Z,71.39
2023-04-24T07:56:02.983Z,71.60
2023-04-24T07:58:30.374Z,70.70
2023-04-24T08:00:57.673Z,70.77
2023-04-24T08:03:25.964Z,75.39
2023-04-24T08:05:53.560Z,71.44
2023-04-24T08:08:23.200Z,75.60
2023-04-24T08:10:51.105Z,74.95
2023-04-24T08:13:18.747Z,75.63
2023-04-24T08:15:46.694Z,72.92
2023-04-24T08:18:14.686Z,71.51
2023-04-24T08:20:42.502Z,71.08
2023-04-24T08:23:09.975Z,71.13
2023-04-24T08:25:37.400Z,69.20
2023-04-24T08:28:07.751Z,69.46
2023-04-24T08:30:35.211Z,70.70
2023-04-24T08:33:02.711Z,67.87
2023-04-24T08:35:30.198Z,68.38
2023-04-24T08:37:57.574Z,67.85
2023-04-24T08:40:31.270Z,68.92
2023-04-24T08:43:00.208Z,69.30
2023-04-24T08:45:27.834Z,67.87
2023-04-24T08:47:58.119Z,66.61
2023-04-24T08:50:25.934Z,65.97
2023-04-24T08:52:54.657Z,66.81
2023-04-24T08:55:26.149Z,64.43
2023-04-24T08:57:54.785Z,65.56
2023-04-24T09:00:23.085Z,66.36
2023-04-24T09:02:51.763Z,67.12
2023-04-24T09:05:22.421Z,67.10
2023-04-24T09:07:57.601Z,67.29
2023-04-24T09:10:26.437Z,67.52
2023-04-24T09:12:55.329Z,68.95
2023-04-24T09:15:22.774Z,70.30
2023-04-24T09:17:52.077Z,68.74
2023-04-24T09:20:19.566Z,66.82
2023-04-24T09:22:46.956Z,67.42
2023-04-24T09:25:14.549Z,67.60
2023-04-24T09:27:45.032Z,68.32
2023-04-24T09:30:13.080Z,68.34
2023-04-24T09:32:40.872Z,67.85
2023-04-24T09:35:11.065Z,68.44
2023-04-24T09:37:39.358Z,68.81
2023-04-24T09:40:20.092Z,67.94
2023-04-24T09:42:54.511Z,67.57
2023-04-24T09:45:22.613Z,67.22
2023-04-24T09:47:56.706Z,66.50
2023-04-24T09:50:24.501Z,66.70
2023-04-24T09:53:02.346Z,65.34
2023-04-24T09:55:30.801Z,66.30
2023-04-24T09:58:02.212Z,65.57
2023-04-24T10:00:32.373Z,66.47
2023-04-24T10:03:04.981Z,66.15
2023-04-24T10:05:37.697Z,66.52
2023-04-24T10:08:09.529Z,66.02
2023-04-24T10:10:41.106Z,67.16
2023-04-24T10:13:10.095Z,66.24
2023-04-24T10:15:38.317Z,62.82
2023-04-24T10:18:07.755Z,63.22
2023-04-24T10:20:37.026Z,62.34
2023-04-24T10:23:04.912Z,61.50
2023-04-24T10:25:35.808Z,63.23
2023-04-24T10:28:04.296Z,64.11
2023-04-24T10:30:36.875Z,62.33
2023-04-24T10:33:06.071Z,62.41
2023-04-24T10:35:38.589Z,61.12
2023-04-24T10:38:25.296Z,60.40
2023-04-24T10:40:52.759Z,61.77
2023-04-24T10:43:20.513Z,60.61
2023-04-24T10:46:05.680Z,59.03
2023-04-24T10:48:35.273Z,60.26
2023-04-24T10:51:03.164Z,61.21
2023-04-24T10:53:31.610Z,59.33
2023-04-24T10:56:14.484Z,58.30
2023-04-24T10:58:45.555Z,58.46
2023-04-24T11:01:27.823Z,57.67
2023-04-24T11:04:00.719Z,58.36
2023-04-24T11:06:37.028Z,59.27
2023-04-24T11:09:13.756Z,60.90
2023-04-24T11:11:46.517Z,60.13
2023-04-24T11:14:17.214Z,58.66
2023-04-24T11:16:56.209Z,58.84
2023-04-24T11:19:26.713Z,58.50
2023-04-24T11:22:15.660Z,57.81
2023-04-24T11:24:49.064Z,56.80
2023-04-24T11:27:23.711Z,57.22
2023-04-24T11:30:02.285Z,55.92
2023-04-24T11:32:31.268Z,54.65
2023-04-24T11:35:03.575Z,55.91
2023-04-24T11:37:42.639Z,55.27
2023-04-24T11:40:12.370Z,53.66
2023-04-24T11:42:46.168Z,53.58
2023-04-24T11:45:14.920Z,52.38
2023-04-24T11:47:43.217Z,51.90
2023-04-24T11:50:16.407Z,50.79
2023-04-24T11:52:46.210Z,50.47
2023-04-24T11:55:16.313Z,51.09
2023-04-24T11:57:45.667Z,49.22
2023-04-24T12:00:24.321Z,49.48
2023-04-24T12:02:52.834Z,49.66
2023-04-24T12:05:22.245Z,48.08
2023-04-24T12:07:50.601Z,46.70
2023-04-24T12:10:29.283Z,47.18
2023-04-24T12:12:58.682Z,47.59
2023-04-24T12:15:27.297Z,47.62
2023-04-24T12:17:55.857Z,49.85
2023-04-24T12:20:32.196Z,49.67
2023-04-24T12:23:02.080Z,50.49
2023-04-24T12:25:32.443Z,49.87
2023-04-24T12:28:06.091Z,49.83
2023-04-24T12:30:36.517Z,51.62
2023-04-24T12:33:04.691Z,52.11
2023-04-24T12:35:34.960Z,52.35
2023-04-24T12:38:15.131Z,51.62
2023-04-24T12:40:44.204Z,50.41
2023-04-24T12:43:16.528Z,49.80
2023-04-24T12:45:45.174Z,49.95
2023-04-24T12:48:13.340Z,49.67
2023-04-24T12:50:41.467Z,49.67
2023-04-24T12:53:10.062Z,50.27
2023-04-24T12:55:38.120Z,48.40
2023-04-24T12:58:05.886Z,49.57
2023-04-24T13:00:33.843Z,48.99
2023-04-24T13:03:02.098Z,48.98
2023-04-24T13:05:29.727Z,50.53
2023-04-24T13:07:58.102Z,50.70
2023-04-24T13:10:25.577Z,50.56
2023-04-24T13:12:53.406Z,48.89
2023-04-24T13:15:21.242Z,49.38
2023-04-24T13:17:48.916Z,48.82
2023-04-24T13:20:16.407Z,49.01
2023-04-24T13:22:43.806Z,49.40
2023-04-24T13:25:11.383Z,49.61
2023-04-24T13:27:41.746Z,50.35
2023-04-24T13:30:09.936Z,50.86
2023-04-24T13:32:37.754Z,51.84
2023-04-24T13:35:05.555Z,52.29
2023-04-24T13:37:33.562Z,50.57
2023-04-24T13:40:01.131Z,50.88
2023-04-24T13:42:28.720Z,52.04
2023-04-24T13:44:56.311Z,50.64
2023-04-24T13:47:23.768Z,51.65
2023-04-24T13:49:51.264Z,51.53
2023-04-24T13:52:18.704Z,51.58
2023-04-24T13:55:05.005Z,50.27
2023-04-24T13:57:32.639Z,50.40
2023-04-24T14:00:05.216Z,50.60
2023-04-24T14:02:34.769Z,50.37
2023-04-24T14:05:02.503Z,49.46
2023-04-24T14:07:30.492Z,49.16
2023-04-24T14:09:58.212Z,49.17
2023-04-24T14:12:26.977Z,49.93
2023-04-24T14:14:54.965Z,51.11
2023-04-24T14:17:22.563Z,50.23
2023-04-24T14:19:50.139Z,50.35
2023-04-24T14:22:17.725Z,50.26
2023-04-24T14:24:45.143Z,49.30
2023-04-24T14:27:12.814Z,49.14
2023-04-24T14:29:40.363Z,48.51
2023-04-24T14:32:10.011Z,48.86
2023-04-24T14:34:37.756Z,48.97
2023-04-24T14:37:05.247Z,50.28
2023-04-24T14:39:32.680Z,50.08
2023-04-24T14:42:02.683Z,50.53
2023-04-24T14:44:30.061Z,49.89
2023-04-24T14:46:57.531Z,50.30
2023-04-24T14:49:25.143Z,51.05
2023-04-24T14:51:52.670Z,50.26
2023-04-24T14:54:20.894Z,50.08
2023-04-24T14:56:48.496Z,50.12
2023-04-24T14:59:16.066Z,49.97
2023-04-24T15:01:43.580Z,50.85
2023-04-24T15:04:11.230Z,49.81
2023-04-24T15:06:38.839Z,50.73
2023-04-24T15:09:06.416Z,50.71
2023-04-24T15:11:33.996Z,50.54
2023-04-24T15:14:01.477Z,50.55
2023-04-24T15:16:28.949Z,51.33
2023-04-24T15:18:58.131Z,51.54
2023-04-24T15:21:26.917Z,51.54
2023-04-24T15:23:54.412Z,51.73
2023-04-24T15:26:23.894Z,52.48
2023-04-24T15:28:53.479Z,53.46
2023-04-24T15:31:23.375Z,54.08
2023-04-24T15:33:51.670Z,56.63
2023-04-24T15:36:19.634Z,57.33
2023-04-24T15:38:47.050Z,56.82
2023-04-24T15:41:14.484Z,51.11
2023-04-24T15:43:42.319Z,48.54
2023-04-24T15:46:11.042Z,50.47
2023-04-24T15:48:41.502Z,50.09
2023-04-24T15:51:09.206Z,47.04
2023-04-24T15:53:36.656Z,46.91
2023-04-24T15:56:04.285Z,47.28
2023-04-24T15:58:31.776Z,48.79
2023-04-24T16:00:59.225Z,48.48
2023-04-24T16:03:26.919Z,48.11
2023-04-24T16:05:54.518Z,47.76
2023-04-24T16:08:22.550Z,47.32
2023-04-24T16:10:50.159Z,47.56
2023-04-24T16:13:18.861Z,48.04
2023-04-24T16:15:46.664Z,48.31
2023-04-24T16:18:14.304Z,49.16
2023-04-24T16:20:41.754Z,49.61
2023-04-24T16:23:09.257Z,49.25
2023-04-24T16:25:36.644Z,49.92
2023-04-24T16:28:04.114Z,49.14
2023-04-24T16:30:31.824Z,48.45
2023-04-24T16:32:59.280Z,47.86
2023-04-24T16:35:26.853Z,48.42
2023-04-24T16:37:54.297Z,50.20
2023-04-24T16:40:21.837Z,50.40
2023-04-24T16:42:50.161Z,50.09
2023-04-24T16:45:17.657Z,49.57
2023-04-24T16:47:45.067Z,49.35
2023-04-24T16:50:12.772Z,49.99
2023-04-24T16:52:40.312Z,48.04
2023-04-24T16:55:09.003Z,47.90
2023-04-24T16:57:36.609Z,48.03
2023-04-24T17:00:04.590Z,47.53
2023-04-24T17:02:33.787Z,46.53
2023-04-24T17:05:01.388Z,55.83
2023-04-24T17:07:29.574Z,59.79
2023-04-24T17:09:56.972Z,64.47
2023-04-24T17:12:24.313Z,66.63
2023-04-24T17:14:51.679Z,68.05
2023-04-24T17:17:20.692Z,69.24
2023-04-24T17:19:48.167Z,69.68
2023-04-24T17:22:15.501Z,69.89
2023-04-24T17:24:43.043Z,68.94
2023-04-24T17:27:15.022Z,69.96
2023-04-24T17:29:43.098Z,70.57
2023-04-24T17:32:10.790Z,70.36
2023-04-24T17:34:38.310Z,70.20
2023-04-24T17:37:05.781Z,70.64
2023-04-24T17:39:33.212Z,71.00
2023-04-24T17:42:02.182Z,70.63
2023-04-24T17:44:29.574Z,71.22
2023-04-24T17:46:56.941Z,71.57
2023-04-24T17:49:24.401Z,71.55
2023-04-24T17:51:51.856Z,71.92
2023-04-24T17:54:19.222Z,71.65
2023-04-24T17:56:46.768Z,71.41
2023-04-24T17:59:14.234Z,71.62
2023-04-24T18:01:41.669Z,71.31
2023-04-24T18:04:09.173Z,70.67
2023-04-24T18:06:37.059Z,70.90
2023-04-24T18:09:04.625Z,71.49
2023-04-24T18:11:32.093Z,73.14
2023-04-24T18:13:59.517Z,73.30
2023-04-24T18:16:26.981Z,73.25
2023-04-24T18:18:54.408Z,71.63
2023-04-24T18:21:21.947Z,71.09
2023-04-24T18:23:49.340Z,70.27
2023-04-24T18:26:17.230Z,70.49
2023-04-24T18:28:44.840Z,70.93
2023-04-24T18:31:12.480Z,70.77
2023-04-24T18:33:39.957Z,68.71
2023-04-24T18:36:07.472Z,68.51
2023-04-24T18:38:36.662Z,68.56
2023-04-24T18:41:04.457Z,68.89
2023-04-24T18:43:31.995Z,67.79
2023-04-24T18:45:59.338Z,68.56
2023-04-24T18:48:28.745Z,69.04
2023-04-24T18:50:56.112Z,68.99
2023-04-24T18:53:24.102Z,69.24
2023-04-24T18:55:51.567Z,69.55
2023-04-24T18:58:19.119Z,68.19
2023-04-24T19:00:46.675Z,67.85
2023-04-24T19:03:14.453Z,66.57
2023-04-24T19:05:42.180Z,66.76
2023-04-24T19:08:09.567Z,67.05
2023-04-24T19:10:37.125Z,65.28
2023-04-24T19:13:04.639Z,64.38
2023-04-24T19:15:33.574Z,63.30
2023-04-24T19:18:01.194Z,63.89
2023-04-24T19:20:28.647Z,63.37
2023-04-24T19:22:56.593Z,63.55
2023-04-24T19:25:24.557Z,63.08
2023-04-24T19:27:52.044Z,63.80
2023-04-24T19:30:19.608Z,63.47
2023-04-24T19:32:47.171Z,64.34
2023-04-24T19:35:14.764Z,64.80
2023-04-24T19:37:42.178Z,64.80
2023-04-24T19:40:09.811Z,64.38
2023-04-24T19:45:11.869Z,63.42
2023-04-24T19:47:39.993Z,61.07
2023-04-24T19:50:08.398Z,60.86
2023-04-24T19:52:36.063Z,60.83
2023-04-24T19:55:04.081Z,60.87
2023-04-24T19:57:31.518Z,61.06
2023-04-24T19:59:58.892Z,61.12
2023-04-24T20:02:26.470Z,60.89
2023-04-24T20:04:54.179Z,61.56
2023-04-24T20:07:21.937Z,62.05
2023-04-24T20:09:49.293Z,61.80
2023-04-24T20:12:16.799Z,61.73
2023-04-24T20:14:44.704Z,61.52
2023-04-24T20:17:12.182Z,60.82
2023-04-24T20:19:41.007Z,60.71
2023-04-24T20:22:11.322Z,60.83
2023-04-24T20:24:40.507Z,60.91
2023-04-24T20:27:08.046Z,60.57
2023-04-24T20:29:35.568Z,60.72
2023-04-24T20:32:03.160Z,61.03
2023-04-24T20:34:31.486Z,60.68
2023-04-24T20:36:59.205Z,60.75
2023-04-24T20:39:26.782Z,60.53
2023-04-24T20:41:54.274Z,61.03
2023-04-24T20:44:22.246Z,60.99
2023-04-24T20:46:49.937Z,60.77
2023-04-24T20:49:17.471Z,60.70
2023-04-24T20:51:44.851Z,60.31
2023-04-24T20:54:12.258Z,60.61
2023-04-24T20:56:39.736Z,60.74
2023-04-24T20:59:07.371Z,60.55
2023-04-24T21:01:34.817Z,60.19
2023-04-24T21:04:02.386Z,60.14
2023-04-24T21:06:29.849Z,58.94
2023-04-24T21:08:57.256Z,58.68
2023-04-24T21:11:24.620Z,57.13
2023-04-24T21:13:52.038Z,58.22
2023-04-24T21:16:19.601Z,59.27
2023-04-24T21:18:47.090Z,58.79
2023-04-24T21:21:14.780Z,57.43
2023-04-24T21:23:42.204Z,57.48
2023-04-24T21:26:09.644Z,57.68
2023-04-24T21:28:37.193Z,58.87
2023-04-24T21:31:04.750Z,58.57
2023-04-24T21:33:32.217Z,58.31
2023-04-24T21:35:59.790Z,58.86
2023-04-24T21:38:27.343Z,58.67
2023-04-24T21:40:54.772Z,59.13
2023-04-24T21:43:28.036Z,59.17
2023-04-24T21:46:01.348Z,59.17
2023-04-24T21:48:28.924Z,59.29
2023-04-24T21:50:56.414Z,60.55
2023-04-24T21:53:23.898Z,60.51
2023-04-24T21:55:51.409Z,60.45
2023-04-24T21:58:18.982Z,60.87
2023-04-24T22:00:47.013Z,61.24
2023-04-24T22:03:14.687Z,61.41
2023-04-24T22:05:42.285Z,61.96
2023-04-24T22:08:10.493Z,61.15
2023-04-24T22:10:38.024Z,61.79
2023-04-24T22:13:05.494Z,62.46
2023-04-24T22:15:33.032Z,61.70
2023-04-24T22:18:01.299Z,62.25
2023-04-24T22:20:30.189Z,61.74
2023-04-24T22:22:57.808Z,61.88
2023-04-24T22:25:25.171Z,61.74
2023-04-24T22:27:52.634Z,62.97
2023-04-24T22:30:20.123Z,64.01
2023-04-24T22:32:47.938Z,64.52
2023-04-24T22:35:16.169Z,64.96
2023-04-24T22:37:43.635Z,65.28
2023-04-24T22:40:11.696Z,66.53
2023-04-24T22:42:39.226Z,67.90
2023-04-24T22:45:08.362Z,69.59
2023-04-24T22:47:35.775Z,71.02
2023-04-24T22:50:03.516Z,72.51
2023-04-24T22:52:31.047Z,74.21
2023-04-24T22:54:58.548Z,75.45
2023-04-24T22:57:25.998Z,76.09
2023-04-24T22:59:54.302Z,76.83
2023-04-24T23:02:23.195Z,77.59
2023-04-24T23:04:50.869Z,77.91
2023-04-24T23:07:18.355Z,78.24
2023-04-24T23:09:45.865Z,78.00
2023-04-24T23:12:13.261Z,78.41
2023-04-24T23:14:40.720Z,78.39
2023-04-24T23:17:08.188Z,77.91
2023-04-24T23:19:35.626Z,77.76
2023-04-24T23:22:03.056Z,76.75
2023-04-24T23:24:30.446Z,76.40
2023-04-24T23:26:57.902Z,75.77
2023-04-24T23:29:26.270Z,75.08
2023-04-24T23:31:54.227Z,74.96
2023-04-24T23:34:21.859Z,74.87
2023-04-24T23:36:49.957Z,74.65
2023-04-24T23:39:17.436Z,74.83
2023-04-24T23:41:44.892Z,75.24
2023-04-24T23:44:12.356Z,75.40
2023-04-24T23:46:39.783Z,74.52
2023-04-24T23:49:07.361Z,74.91
2023-04-24T23:51:35.008Z,75.06
2023-04-24T23:54:02.601Z,75.37
2023-04-24T23:56:30.084Z,75.39
2023-04-24T23:58:57.462Z,74.63
